sensor_id;sensor_type;location;lat;lon;timestamp;P1;durP1;ratioP1;P2;durP2;ratioP2
41683;SDS011;27369;52.030;4.586;2023-01-26T00:03:39;70.00;;;27.48;;
41683;SDS011;27369;52.030;4.586;2023-01-26T00:06:06;63.17;;;27.00;;
41683;SDS011;27369;52.030;4.586;2023-01-26T00:08:36;61.15;;;27.00;;
41683;SDS011;27369;52.030;4.586;2023-01-26T00:11:03;68.90;;;27.88;;
41683;SDS011;27369;52.030;4.586;2023-01-26T00:13:30;70.05;;;28.40;;
41683;SDS011;27369;52.030;4.586;2023-01-26T00:15:56;62.75;;;26.30;;
41683;SDS011;27369;52.030;4.586;2023-01-26T00:18:21;66.38;;;27.08;;
41683;SDS011;27369;52.030;4.586;2023-01-26T00:20:46;70.27;;;26.67;;
41683;SDS011;27369;52.030;4.586;2023-01-26T00:23:12;69.25;;;28.77;;
41683;SDS011;27369;52.030;4.586;2023-01-26T00:25:38;55.75;;;23.05;;
41683;SDS011;27369;52.030;4.586;2023-01-26T00:28:06;64.68;;;27.83;;
41683;SDS011;27369;52.030;4.586;2023-01-26T00:30:32;66.57;;;28.13;;
41683;SDS011;27369;52.030;4.586;2023-01-26T00:32:57;67.40;;;27.43;;
41683;SDS011;27369;52.030;4.586;2023-01-26T00:35:23;61.90;;;26.07;;
41683;SDS011;27369;52.030;4.586;2023-01-26T00:37:48;67.55;;;26.27;;
41683;SDS011;27369;52.030;4.586;2023-01-26T00:40:14;65.78;;;26.52;;
41683;SDS011;27369;52.030;4.586;2023-01-26T00:42:40;65.93;;;25.98;;
41683;SDS011;27369;52.030;4.586;2023-01-26T00:45:05;68.45;;;28.75;;
41683;SDS011;27369;52.030;4.586;2023-01-26T00:47:31;66.88;;;27.77;;
41683;SDS011;27369;52.030;4.586;2023-01-26T00:49:57;65.80;;;27.77;;
41683;SDS011;27369;52.030;4.586;2023-01-26T00:52:22;72.97;;;28.67;;
41683;SDS011;27369;52.030;4.586;2023-01-26T00:54:47;67.93;;;29.37;;
41683;SDS011;27369;52.030;4.586;2023-01-26T00:57:13;65.40;;;26.77;;
41683;SDS011;27369;52.030;4.586;2023-01-26T00:59:38;65.37;;;27.40;;
41683;SDS011;27369;52.030;4.586;2023-01-26T01:02:03;69.00;;;28.93;;
41683;SDS011;27369;52.030;4.586;2023-01-26T01:04:29;63.85;;;26.40;;
41683;SDS011;27369;52.030;4.586;2023-01-26T01:06:55;70.85;;;27.90;;
41683;SDS011;27369;52.030;4.586;2023-01-26T01:09:21;72.30;;;31.13;;
41683;SDS011;27369;52.030;4.586;2023-01-26T01:11:47;74.32;;;28.77;;
41683;SDS011;27369;52.030;4.586;2023-01-26T01:14:12;70.00;;;28.95;;
41683;SDS011;27369;52.030;4.586;2023-01-26T01:16:39;69.47;;;27.88;;
41683;SDS011;27369;52.030;4.586;2023-01-26T01:19:05;82.20;;;30.73;;
41683;SDS011;27369;52.030;4.586;2023-01-26T01:21:31;70.88;;;30.08;;
41683;SDS011;27369;52.030;4.586;2023-01-26T01:23:58;75.97;;;30.35;;
41683;SDS011;27369;52.030;4.586;2023-01-26T01:26:24;78.90;;;32.03;;
41683;SDS011;27369;52.030;4.586;2023-01-26T01:28:52;68.22;;;28.08;;
41683;SDS011;27369;52.030;4.586;2023-01-26T01:31:19;75.18;;;30.02;;
41683;SDS011;27369;52.030;4.586;2023-01-26T01:33:45;76.00;;;29.98;;
41683;SDS011;27369;52.030;4.586;2023-01-26T01:36:12;74.25;;;30.13;;
41683;SDS011;27369;52.030;4.586;2023-01-26T01:38:39;74.30;;;30.77;;
41683;SDS011;27369;52.030;4.586;2023-01-26T01:41:05;78.22;;;32.45;;
41683;SDS011;27369;52.030;4.586;2023-01-26T01:43:31;71.72;;;30.90;;
41683;SDS011;27369;52.030;4.586;2023-01-26T01:45:58;67.45;;;26.88;;
41683;SDS011;27369;52.030;4.586;2023-01-26T01:51:12;75.95;;;29.40;;
41683;SDS011;27369;52.030;4.586;2023-01-26T01:53:42;73.07;;;27.20;;
41683;SDS011;27369;52.030;4.586;2023-01-26T01:56:12;71.35;;;30.33;;
41683;SDS011;27369;52.030;4.586;2023-01-26T01:58:43;73.05;;;28.23;;
41683;SDS011;27369;52.030;4.586;2023-01-26T02:01:10;72.80;;;29.67;;
41683;SDS011;27369;52.030;4.586;2023-01-26T02:03:36;74.95;;;29.35;;
41683;SDS011;27369;52.030;4.586;2023-01-26T02:06:48;83.90;;;33.92;;
41683;SDS011;27369;52.030;4.586;2023-01-26T02:08:55;76.25;;;30.33;;
41683;SDS011;27369;52.030;4.586;2023-01-26T02:11:23;78.40;;;29.60;;
41683;SDS011;27369;52.030;4.586;2023-01-26T02:13:52;77.05;;;29.75;;
41683;SDS011;27369;52.030;4.586;2023-01-26T02:16:18;79.88;;;30.83;;
41683;SDS011;27369;52.030;4.586;2023-01-26T02:18:44;77.55;;;28.58;;
41683;SDS011;27369;52.030;4.586;2023-01-26T02:21:20;73.53;;;29.55;;
41683;SDS011;27369;52.030;4.586;2023-01-26T02:26:20;76.75;;;30.60;;
41683;SDS011;27369;52.030;4.586;2023-01-26T02:28:47;75.70;;;30.65;;
41683;SDS011;27369;52.030;4.586;2023-01-26T02:31:14;77.38;;;29.73;;
41683;SDS011;27369;52.030;4.586;2023-01-26T02:33:40;76.85;;;30.60;;
41683;SDS011;27369;52.030;4.586;2023-01-26T02:36:06;79.03;;;29.10;;
41683;SDS011;27369;52.030;4.586;2023-01-26T02:38:45;79.13;;;28.27;;
41683;SDS011;27369;52.030;4.586;2023-01-26T02:44:06;74.57;;;29.70;;
41683;SDS011;27369;52.030;4.586;2023-01-26T02:46:34;73.18;;;29.25;;
41683;SDS011;27369;52.030;4.586;2023-01-26T02:48:59;75.30;;;29.98;;
41683;SDS011;27369;52.030;4.586;2023-01-26T02:51:44;72.55;;;27.80;;
41683;SDS011;27369;52.030;4.586;2023-01-26T02:54:09;77.85;;;30.98;;
41683;SDS011;27369;52.030;4.586;2023-01-26T02:56:54;73.93;;;29.60;;
41683;SDS011;27369;52.030;4.586;2023-01-26T02:59:20;73.65;;;28.77;;
41683;SDS011;27369;52.030;4.586;2023-01-26T03:01:46;73.47;;;29.55;;
41683;SDS011;27369;52.030;4.586;2023-01-26T03:04:14;69.85;;;29.58;;
41683;SDS011;27369;52.030;4.586;2023-01-26T03:06:39;63.20;;;26.38;;
41683;SDS011;27369;52.030;4.586;2023-01-26T03:09:04;66.80;;;27.95;;
41683;SDS011;27369;52.030;4.586;2023-01-26T03:11:30;69.32;;;28.30;;
41683;SDS011;27369;52.030;4.586;2023-01-26T03:14:09;71.32;;;29.27;;
41683;SDS011;27369;52.030;4.586;2023-01-26T03:16:35;65.53;;;26.80;;
41683;SDS011;27369;52.030;4.586;2023-01-26T03:19:01;61.85;;;26.27;;
41683;SDS011;27369;52.030;4.586;2023-01-26T03:21:27;71.97;;;27.52;;
41683;SDS011;27369;52.030;4.586;2023-01-26T03:24:11;67.40;;;28.25;;
41683;SDS011;27369;52.030;4.586;2023-01-26T03:26:56;69.25;;;28.02;;
41683;SDS011;27369;52.030;4.586;2023-01-26T03:29:39;68.35;;;25.88;;
41683;SDS011;27369;52.030;4.586;2023-01-26T03:32:05;68.32;;;26.98;;
41683;SDS011;27369;52.030;4.586;2023-01-26T03:34:30;61.53;;;27.25;;
41683;SDS011;27369;52.030;4.586;2023-01-26T03:36:56;69.18;;;25.92;;
41683;SDS011;27369;52.030;4.586;2023-01-26T03:39:22;65.40;;;26.30;;
41683;SDS011;27369;52.030;4.586;2023-01-26T03:42:05;60.70;;;25.77;;
41683;SDS011;27369;52.030;4.586;2023-01-26T03:44:49;69.85;;;26.75;;
41683;SDS011;27369;52.030;4.586;2023-01-26T03:47:33;66.90;;;27.42;;
41683;SDS011;27369;52.030;4.586;2023-01-26T03:50:17;64.25;;;26.63;;
41683;SDS011;27369;52.030;4.586;2023-01-26T03:53:02;66.18;;;27.48;;
41683;SDS011;27369;52.030;4.586;2023-01-26T03:55:45;62.00;;;26.40;;
41683;SDS011;27369;52.030;4.586;2023-01-26T03:58:29;63.67;;;26.77;;
41683;SDS011;27369;52.030;4.586;2023-01-26T04:00:58;60.45;;;25.23;;
41683;SDS011;27369;52.030;4.586;2023-01-26T04:03:23;62.20;;;25.85;;
41683;SDS011;27369;52.030;4.586;2023-01-26T04:06:07;62.17;;;25.67;;
41683;SDS011;27369;52.030;4.586;2023-01-26T04:08:51;62.00;;;27.63;;
41683;SDS011;27369;52.030;4.586;2023-01-26T04:11:16;65.25;;;26.00;;
41683;SDS011;27369;52.030;4.586;2023-01-26T04:13:42;57.40;;;24.63;;
41683;SDS011;27369;52.030;4.586;2023-01-26T04:16:26;60.20;;;27.50;;
41683;SDS011;27369;52.030;4.586;2023-01-26T04:19:10;66.13;;;28.50;;
41683;SDS011;27369;52.030;4.586;2023-01-26T04:21:53;66.97;;;26.58;;
41683;SDS011;27369;52.030;4.586;2023-01-26T04:24:19;60.47;;;26.52;;
41683;SDS011;27369;52.030;4.586;2023-01-26T04:26:46;61.67;;;26.73;;
41683;SDS011;27369;52.030;4.586;2023-01-26T04:29:12;69.03;;;27.02;;
41683;SDS011;27369;52.030;4.586;2023-01-26T04:31:39;71.10;;;27.83;;
41683;SDS011;27369;52.030;4.586;2023-01-26T04:34:09;66.80;;;27.33;;
41683;SDS011;27369;52.030;4.586;2023-01-26T04:36:36;66.53;;;28.77;;
41683;SDS011;27369;52.030;4.586;2023-01-26T04:39:02;73.03;;;29.40;;
41683;SDS011;27369;52.030;4.586;2023-01-26T04:41:28;69.75;;;27.83;;
41683;SDS011;27369;52.030;4.586;2023-01-26T04:43:54;73.70;;;29.27;;
41683;SDS011;27369;52.030;4.586;2023-01-26T04:46:20;72.55;;;27.17;;
41683;SDS011;27369;52.030;4.586;2023-01-26T04:48:45;75.65;;;29.58;;
41683;SDS011;27369;52.030;4.586;2023-01-26T04:51:12;66.68;;;27.67;;
41683;SDS011;27369;52.030;4.586;2023-01-26T04:53:39;68.95;;;27.90;;
41683;SDS011;27369;52.030;4.586;2023-01-26T04:56:05;64.32;;;26.88;;
41683;SDS011;27369;52.030;4.586;2023-01-26T04:58:33;62.22;;;25.13;;
41683;SDS011;27369;52.030;4.586;2023-01-26T05:00:58;67.13;;;26.88;;
41683;SDS011;27369;52.030;4.586;2023-01-26T05:03:24;66.82;;;26.95;;
41683;SDS011;27369;52.030;4.586;2023-01-26T05:05:51;66.53;;;28.05;;
41683;SDS011;27369;52.030;4.586;2023-01-26T05:08:18;66.13;;;29.27;;
41683;SDS011;27369;52.030;4.586;2023-01-26T05:10:44;70.38;;;26.75;;
41683;SDS011;27369;52.030;4.586;2023-01-26T05:13:10;65.07;;;25.95;;
41683;SDS011;27369;52.030;4.586;2023-01-26T05:15:36;65.10;;;26.45;;
41683;SDS011;27369;52.030;4.586;2023-01-26T05:18:02;63.92;;;26.63;;
41683;SDS011;27369;52.030;4.586;2023-01-26T05:20:28;59.85;;;26.75;;
41683;SDS011;27369;52.030;4.586;2023-01-26T05:22:53;59.75;;;25.80;;
41683;SDS011;27369;52.030;4.586;2023-01-26T05:25:19;56.95;;;24.85;;
41683;SDS011;27369;52.030;4.586;2023-01-26T05:27:45;60.92;;;26.45;;
41683;SDS011;27369;52.030;4.586;2023-01-26T05:30:11;66.25;;;26.80;;
41683;SDS011;27369;52.030;4.586;2023-01-26T05:32:37;56.15;;;25.77;;
41683;SDS011;27369;52.030;4.586;2023-01-26T05:35:03;58.00;;;25.25;;
41683;SDS011;27369;52.030;4.586;2023-01-26T05:37:30;64.10;;;26.08;;
41683;SDS011;27369;52.030;4.586;2023-01-26T05:39:56;58.28;;;25.00;;
41683;SDS011;27369;52.030;4.586;2023-01-26T05:42:22;56.78;;;25.48;;
41683;SDS011;27369;52.030;4.586;2023-01-26T05:44:47;66.50;;;25.48;;
41683;SDS011;27369;52.030;4.586;2023-01-26T05:47:13;57.72;;;26.08;;
41683;SDS011;27369;52.030;4.586;2023-01-26T05:49:39;64.90;;;25.33;;
41683;SDS011;27369;52.030;4.586;2023-01-26T05:52:19;57.45;;;25.45;;
41683;SDS011;27369;52.030;4.586;2023-01-26T05:54:46;70.38;;;26.90;;
41683;SDS011;27369;52.030;4.586;2023-01-26T05:57:11;64.45;;;25.33;;
41683;SDS011;27369;52.030;4.586;2023-01-26T05:59:37;68.20;;;27.17;;
41683;SDS011;27369;52.030;4.586;2023-01-26T06:02:03;75.65;;;27.02;;
41683;SDS011;27369;52.030;4.586;2023-01-26T06:04:29;66.60;;;24.73;;
41683;SDS011;27369;52.030;4.586;2023-01-26T06:06:55;75.05;;;26.25;;
41683;SDS011;27369;52.030;4.586;2023-01-26T06:09:21;84.20;;;25.65;;
41683;SDS011;27369;52.030;4.586;2023-01-26T06:11:47;70.05;;;24.20;;
41683;SDS011;27369;52.030;4.586;2023-01-26T06:14:13;74.15;;;24.67;;
41683;SDS011;27369;52.030;4.586;2023-01-26T06:16:39;84.47;;;23.50;;
41683;SDS011;27369;52.030;4.586;2023-01-26T06:19:04;78.85;;;23.90;;
41683;SDS011;27369;52.030;4.586;2023-01-26T06:21:30;80.88;;;25.02;;
41683;SDS011;27369;52.030;4.586;2023-01-26T06:23:56;78.50;;;23.52;;
41683;SDS011;27369;52.030;4.586;2023-01-26T06:26:22;76.45;;;22.88;;
41683;SDS011;27369;52.030;4.586;2023-01-26T06:28:50;77.53;;;23.05;;
41683;SDS011;27369;52.030;4.586;2023-01-26T06:31:16;84.25;;;22.58;;
41683;SDS011;27369;52.030;4.586;2023-01-26T06:33:42;72.63;;;22.42;;
41683;SDS011;27369;52.030;4.586;2023-01-26T06:36:11;73.63;;;22.88;;
41683;SDS011;27369;52.030;4.586;2023-01-26T06:38:38;69.03;;;21.67;;
41683;SDS011;27369;52.030;4.586;2023-01-26T06:41:09;63.88;;;21.63;;
41683;SDS011;27369;52.030;4.586;2023-01-26T06:43:35;58.78;;;20.73;;
41683;SDS011;27369;52.030;4.586;2023-01-26T06:46:01;54.72;;;20.08;;
41683;SDS011;27369;52.030;4.586;2023-01-26T06:48:28;72.50;;;20.70;;
41683;SDS011;27369;52.030;4.586;2023-01-26T06:50:56;57.53;;;19.73;;
41683;SDS011;27369;52.030;4.586;2023-01-26T06:53:24;61.72;;;21.90;;
41683;SDS011;27369;52.030;4.586;2023-01-26T06:56:04;57.95;;;19.10;;
41683;SDS011;27369;52.030;4.586;2023-01-26T06:58:30;53.60;;;18.88;;
41683;SDS011;27369;52.030;4.586;2023-01-26T07:00:55;48.55;;;18.38;;
41683;SDS011;27369;52.030;4.586;2023-01-26T07:03:21;53.60;;;17.10;;
41683;SDS011;27369;52.030;4.586;2023-01-26T07:05:47;57.25;;;18.08;;
41683;SDS011;27369;52.030;4.586;2023-01-26T07:08:12;54.22;;;18.02;;
41683;SDS011;27369;52.030;4.586;2023-01-26T07:10:38;49.67;;;14.47;;
41683;SDS011;27369;52.030;4.586;2023-01-26T07:13:04;50.80;;;14.27;;
41683;SDS011;27369;52.030;4.586;2023-01-26T07:15:30;39.53;;;11.70;;
41683;SDS011;27369;52.030;4.586;2023-01-26T07:17:56;40.25;;;11.50;;
41683;SDS011;27369;52.030;4.586;2023-01-26T07:22:48;32.20;;;6.53;;
41683;SDS011;27369;52.030;4.586;2023-01-26T07:25:15;33.42;;;7.22;;
41683;SDS011;27369;52.030;4.586;2023-01-26T07:27:41;20.92;;;4.93;;
41683;SDS011;27369;52.030;4.586;2023-01-26T07:30:07;22.05;;;6.53;;
41683;SDS011;27369;52.030;4.586;2023-01-26T07:32:34;26.35;;;5.93;;
41683;SDS011;27369;52.030;4.586;2023-01-26T07:34:59;41.83;;;5.20;;
41683;SDS011;27369;52.030;4.586;2023-01-26T07:37:27;25.67;;;4.70;;
41683;SDS011;27369;52.030;4.586;2023-01-26T07:39:53;25.42;;;4.28;;
41683;SDS011;27369;52.030;4.586;2023-01-26T07:42:19;21.60;;;3.85;;
41683;SDS011;27369;52.030;4.586;2023-01-26T07:44:45;23.55;;;4.22;;
41683;SDS011;27369;52.030;4.586;2023-01-26T07:47:10;22.58;;;2.67;;
41683;SDS011;27369;52.030;4.586;2023-01-26T07:49:36;20.95;;;3.33;;
41683;SDS011;27369;52.030;4.586;2023-01-26T07:52:01;35.67;;;4.22;;
41683;SDS011;27369;52.030;4.586;2023-01-26T07:54:26;28.38;;;4.18;;
41683;SDS011;27369;52.030;4.586;2023-01-26T07:56:52;23.67;;;3.67;;
41683;SDS011;27369;52.030;4.586;2023-01-26T07:59:18;20.58;;;3.42;;
41683;SDS011;27369;52.030;4.586;2023-01-26T08:01:44;33.22;;;3.92;;
41683;SDS011;27369;52.030;4.586;2023-01-26T08:04:10;25.40;;;3.53;;
41683;SDS011;27369;52.030;4.586;2023-01-26T08:06:36;20.38;;;3.17;;
41683;SDS011;27369;52.030;4.586;2023-01-26T08:09:02;30.30;;;3.67;;
41683;SDS011;27369;52.030;4.586;2023-01-26T08:11:27;20.10;;;4.25;;
41683;SDS011;27369;52.030;4.586;2023-01-26T08:13:53;39.97;;;4.40;;
41683;SDS011;27369;52.030;4.586;2023-01-26T08:16:19;32.75;;;3.72;;
41683;SDS011;27369;52.030;4.586;2023-01-26T08:18:45;31.55;;;3.90;;
41683;SDS011;27369;52.030;4.586;2023-01-26T08:21:11;27.13;;;3.25;;
41683;SDS011;27369;52.030;4.586;2023-01-26T08:23:38;32.67;;;4.47;;
41683;SDS011;27369;52.030;4.586;2023-01-26T08:26:05;29.67;;;3.85;;
41683;SDS011;27369;52.030;4.586;2023-01-26T08:28:35;32.20;;;4.35;;
41683;SDS011;27369;52.030;4.586;2023-01-26T08:33:31;31.77;;;4.55;;
41683;SDS011;27369;52.030;4.586;2023-01-26T08:36:04;36.25;;;5.43;;
41683;SDS011;27369;52.030;4.586;2023-01-26T08:38:31;33.97;;;4.30;;
41683;SDS011;27369;52.030;4.586;2023-01-26T08:43:23;25.98;;;3.83;;
41683;SDS011;27369;52.030;4.586;2023-01-26T08:45:49;38.92;;;3.45;;
41683;SDS011;27369;52.030;4.586;2023-01-26T08:48:15;27.17;;;3.60;;
41683;SDS011;27369;52.030;4.586;2023-01-26T08:50:41;27.52;;;3.88;;
41683;SDS011;27369;52.030;4.586;2023-01-26T08:53:06;23.98;;;3.42;;
41683;SDS011;27369;52.030;4.586;2023-01-26T08:55:33;31.58;;;3.45;;
41683;SDS011;27369;52.030;4.586;2023-01-26T08:57:59;32.25;;;4.25;;
41683;SDS011;27369;52.030;4.586;2023-01-26T09:00:25;33.83;;;3.08;;
41683;SDS011;27369;52.030;4.586;2023-01-26T09:02:52;24.98;;;4.85;;
41683;SDS011;27369;52.030;4.586;2023-01-26T09:05:23;23.75;;;3.53;;
41683;SDS011;27369;52.030;4.586;2023-01-26T09:07:48;27.33;;;3.47;;
41683;SDS011;27369;52.030;4.586;2023-01-26T09:10:13;21.43;;;3.57;;
41683;SDS011;27369;52.030;4.586;2023-01-26T09:12:40;25.00;;;3.45;;
41683;SDS011;27369;52.030;4.586;2023-01-26T09:15:05;20.42;;;2.83;;
41683;SDS011;27369;52.030;4.586;2023-01-26T09:19:57;26.30;;;3.53;;
41683;SDS011;27369;52.030;4.586;2023-01-26T09:22:22;19.20;;;3.13;;
41683;SDS011;27369;52.030;4.586;2023-01-26T09:24:48;26.45;;;3.53;;
41683;SDS011;27369;52.030;4.586;2023-01-26T09:27:13;18.85;;;4.15;;
41683;SDS011;27369;52.030;4.586;2023-01-26T09:29:39;21.95;;;3.10;;
41683;SDS011;27369;52.030;4.586;2023-01-26T09:32:04;38.88;;;6.07;;
41683;SDS011;27369;52.030;4.586;2023-01-26T09:34:30;23.13;;;3.97;;
41683;SDS011;27369;52.030;4.586;2023-01-26T09:36:55;24.35;;;3.35;;
41683;SDS011;27369;52.030;4.586;2023-01-26T09:39:21;19.02;;;3.67;;
41683;SDS011;27369;52.030;4.586;2023-01-26T09:44:25;28.00;;;3.75;;
41683;SDS011;27369;52.030;4.586;2023-01-26T09:47:48;30.23;;;4.35;;
41683;SDS011;27369;52.030;4.586;2023-01-26T09:49:47;24.83;;;4.47;;
41683;SDS011;27369;52.030;4.586;2023-01-26T09:52:25;36.25;;;5.75;;
41683;SDS011;27369;52.030;4.586;2023-01-26T09:54:53;29.13;;;4.53;;
41683;SDS011;27369;52.030;4.586;2023-01-26T09:57:33;30.00;;;3.45;;
41683;SDS011;27369;52.030;4.586;2023-01-26T10:00:35;24.23;;;2.75;;
41683;SDS011;27369;52.030;4.586;2023-01-26T10:03:12;25.13;;;3.42;;
41683;SDS011;27369;52.030;4.586;2023-01-26T10:06:13;26.50;;;4.03;;
41683;SDS011;27369;52.030;4.586;2023-01-26T10:08:51;22.73;;;3.63;;
41683;SDS011;27369;52.030;4.586;2023-01-26T10:14:17;17.67;;;2.65;;
41683;SDS011;27369;52.030;4.586;2023-01-26T10:16:48;23.55;;;3.75;;
41683;SDS011;27369;52.030;4.586;2023-01-26T10:22:02;16.30;;;2.78;;
41683;SDS011;27369;52.030;4.586;2023-01-26T10:24:33;21.30;;;2.70;;
41683;SDS011;27369;52.030;4.586;2023-01-26T10:26:59;20.00;;;2.87;;
41683;SDS011;27369;52.030;4.586;2023-01-26T10:29:24;12.20;;;2.88;;
41683;SDS011;27369;52.030;4.586;2023-01-26T10:31:50;23.60;;;3.13;;
41683;SDS011;27369;52.030;4.586;2023-01-26T10:34:16;19.27;;;2.95;;
41683;SDS011;27369;52.030;4.586;2023-01-26T10:36:46;20.98;;;3.92;;
41683;SDS011;27369;52.030;4.586;2023-01-26T10:39:13;7.78;;;2.25;;
41683;SDS011;27369;52.030;4.586;2023-01-26T10:41:40;19.05;;;2.50;;
41683;SDS011;27369;52.030;4.586;2023-01-26T10:47:03;13.50;;;2.30;;
41683;SDS011;27369;52.030;4.586;2023-01-26T10:49:42;18.30;;;2.35;;
41683;SDS011;27369;52.030;4.586;2023-01-26T10:52:18;6.35;;;1.27;;
41683;SDS011;27369;52.030;4.586;2023-01-26T10:55:15;19.25;;;2.60;;
41683;SDS011;27369;52.030;4.586;2023-01-26T10:57:44;10.40;;;1.83;;
41683;SDS011;27369;52.030;4.586;2023-01-26T11:00:24;10.70;;;1.65;;
41683;SDS011;27369;52.030;4.586;2023-01-26T11:03:03;15.30;;;1.73;;
41683;SDS011;27369;52.030;4.586;2023-01-26T11:05:37;8.88;;;2.10;;
41683;SDS011;27369;52.030;4.586;2023-01-26T11:08:10;13.02;;;2.13;;
41683;SDS011;27369;52.030;4.586;2023-01-26T11:10:59;18.10;;;2.28;;
41683;SDS011;27369;52.030;4.586;2023-01-26T11:13:25;5.82;;;2.17;;
41683;SDS011;27369;52.030;4.586;2023-01-26T11:18:42;9.77;;;2.25;;
41683;SDS011;27369;52.030;4.586;2023-01-26T11:21:29;13.80;;;2.00;;
41683;SDS011;27369;52.030;4.586;2023-01-26T11:35:28;23.85;;;3.33;;
41683;SDS011;27369;52.030;4.586;2023-01-26T11:41:01;17.52;;;2.42;;
41683;SDS011;27369;52.030;4.586;2023-01-26T11:46:54;15.60;;;1.65;;
41683;SDS011;27369;52.030;4.586;2023-01-26T11:52:31;8.35;;;1.73;;
41683;SDS011;27369;52.030;4.586;2023-01-26T11:55:15;10.75;;;1.40;;
41683;SDS011;27369;52.030;4.586;2023-01-26T11:58:01;13.50;;;1.75;;
41683;SDS011;27369;52.030;4.586;2023-01-26T12:00:48;7.75;;;1.25;;
41683;SDS011;27369;52.030;4.586;2023-01-26T12:03:23;8.82;;;1.00;;
41683;SDS011;27369;52.030;4.586;2023-01-26T12:06:02;12.48;;;2.40;;
41683;SDS011;27369;52.030;4.586;2023-01-26T12:11:08;11.02;;;1.33;;
41683;SDS011;27369;52.030;4.586;2023-01-26T12:14:36;8.00;;;1.50;;
41683;SDS011;27369;52.030;4.586;2023-01-26T12:22:45;10.98;;;1.80;;
41683;SDS011;27369;52.030;4.586;2023-01-26T12:25:21;7.70;;;1.15;;
41683;SDS011;27369;52.030;4.586;2023-01-26T12:27:57;9.38;;;2.17;;
41683;SDS011;27369;52.030;4.586;2023-01-26T12:33:11;8.48;;;1.52;;
41683;SDS011;27369;52.030;4.586;2023-01-26T12:35:44;7.85;;;1.67;;
41683;SDS011;27369;52.030;4.586;2023-01-26T12:44:40;10.48;;;1.00;;
41683;SDS011;27369;52.030;4.586;2023-01-26T12:52:49;13.57;;;1.38;;
41683;SDS011;27369;52.030;4.586;2023-01-26T12:55:31;7.07;;;1.38;;
41683;SDS011;27369;52.030;4.586;2023-01-26T12:58:12;11.43;;;1.85;;
41683;SDS011;27369;52.030;4.586;2023-01-26T13:00:49;7.07;;;1.48;;
41683;SDS011;27369;52.030;4.586;2023-01-26T13:03:33;10.52;;;1.42;;
41683;SDS011;27369;52.030;4.586;2023-01-26T13:11:03;9.60;;;1.90;;
41683;SDS011;27369;52.030;4.586;2023-01-26T13:18:50;12.73;;;2.10;;
41683;SDS011;27369;52.030;4.586;2023-01-26T13:21:26;7.20;;;1.20;;
41683;SDS011;27369;52.030;4.586;2023-01-26T13:23:53;7.97;;;2.25;;
41683;SDS011;27369;52.030;4.586;2023-01-26T13:26:20;13.45;;;2.40;;
41683;SDS011;27369;52.030;4.586;2023-01-26T13:28:50;8.32;;;0.73;;
41683;SDS011;27369;52.030;4.586;2023-01-26T13:33:58;10.05;;;1.40;;
41683;SDS011;27369;52.030;4.586;2023-01-26T13:36:27;8.18;;;1.02;;
41683;SDS011;27369;52.030;4.586;2023-01-26T13:39:11;4.88;;;0.98;;
41683;SDS011;27369;52.030;4.586;2023-01-26T13:41:43;8.43;;;1.73;;
41683;SDS011;27369;52.030;4.586;2023-01-26T13:44:15;6.88;;;1.00;;
41683;SDS011;27369;52.030;4.586;2023-01-26T13:46:49;8.52;;;1.00;;
41683;SDS011;27369;52.030;4.586;2023-01-26T13:49:24;4.95;;;1.13;;
41683;SDS011;27369;52.030;4.586;2023-01-26T13:51:50;6.90;;;1.20;;
41683;SDS011;27369;52.030;4.586;2023-01-26T13:54:15;5.70;;;0.70;;
41683;SDS011;27369;52.030;4.586;2023-01-26T13:59:23;8.57;;;0.95;;
41683;SDS011;27369;52.030;4.586;2023-01-26T14:01:50;7.55;;;1.23;;
41683;SDS011;27369;52.030;4.586;2023-01-26T14:04:27;6.90;;;1.30;;
41683;SDS011;27369;52.030;4.586;2023-01-26T14:06:58;8.65;;;1.40;;
41683;SDS011;27369;52.030;4.586;2023-01-26T14:09:27;7.15;;;0.93;;
41683;SDS011;27369;52.030;4.586;2023-01-26T14:11:58;4.35;;;0.75;;
41683;SDS011;27369;52.030;4.586;2023-01-26T14:14:25;5.60;;;1.13;;
41683;SDS011;27369;52.030;4.586;2023-01-26T14:16:53;8.90;;;1.33;;
41683;SDS011;27369;52.030;4.586;2023-01-26T14:19:21;5.20;;;1.00;;
41683;SDS011;27369;52.030;4.586;2023-01-26T14:22:29;5.55;;;0.75;;
41683;SDS011;27369;52.030;4.586;2023-01-26T14:24:39;4.53;;;0.70;;
41683;SDS011;27369;52.030;4.586;2023-01-26T14:30:24;8.18;;;0.98;;
41683;SDS011;27369;52.030;4.586;2023-01-26T14:33:12;7.97;;;1.33;;
41683;SDS011;27369;52.030;4.586;2023-01-26T14:35:40;7.68;;;0.90;;
41683;SDS011;27369;52.030;4.586;2023-01-26T14:40:48;6.10;;;1.20;;
41683;SDS011;27369;52.030;4.586;2023-01-26T14:43:18;10.75;;;1.08;;
41683;SDS011;27369;52.030;4.586;2023-01-26T14:46:06;10.20;;;1.40;;
41683;SDS011;27369;52.030;4.586;2023-01-26T14:48:37;6.85;;;1.20;;
41683;SDS011;27369;52.030;4.586;2023-01-26T14:51:09;10.93;;;1.30;;
41683;SDS011;27369;52.030;4.586;2023-01-26T14:54:00;6.63;;;1.35;;
41683;SDS011;27369;52.030;4.586;2023-01-26T14:56:32;7.40;;;1.17;;
41683;SDS011;27369;52.030;4.586;2023-01-26T14:59:01;5.35;;;0.88;;
41683;SDS011;27369;52.030;4.586;2023-01-26T15:01:28;9.63;;;1.80;;
41683;SDS011;27369;52.030;4.586;2023-01-26T15:04:01;7.75;;;2.08;;
41683;SDS011;27369;52.030;4.586;2023-01-26T15:06:45;8.73;;;1.50;;
41683;SDS011;27369;52.030;4.586;2023-01-26T15:11:52;10.05;;;1.17;;
41683;SDS011;27369;52.030;4.586;2023-01-26T15:17:25;7.05;;;1.33;;
41683;SDS011;27369;52.030;4.586;2023-01-26T15:19:50;15.85;;;1.50;;
41683;SDS011;27369;52.030;4.586;2023-01-26T15:22:17;15.90;;;1.87;;
41683;SDS011;27369;52.030;4.586;2023-01-26T15:24:46;9.18;;;1.75;;
41683;SDS011;27369;52.030;4.586;2023-01-26T15:27:42;8.45;;;1.60;;
41683;SDS011;27369;52.030;4.586;2023-01-26T15:30:16;10.00;;;1.45;;
41683;SDS011;27369;52.030;4.586;2023-01-26T15:32:45;9.32;;;1.50;;
41683;SDS011;27369;52.030;4.586;2023-01-26T15:35:27;9.38;;;0.98;;
41683;SDS011;27369;52.030;4.586;2023-01-26T15:38:03;16.52;;;1.63;;
41683;SDS011;27369;52.030;4.586;2023-01-26T15:40:37;2.70;;;0.57;;
41683;SDS011;27369;52.030;4.586;2023-01-26T15:43:18;4.93;;;0.90;;
41683;SDS011;27369;52.030;4.586;2023-01-26T15:46:06;6.18;;;1.20;;
41683;SDS011;27369;52.030;4.586;2023-01-26T15:48:33;5.32;;;0.90;;
41683;SDS011;27369;52.030;4.586;2023-01-26T15:50:59;6.30;;;0.88;;
41683;SDS011;27369;52.030;4.586;2023-01-26T15:53:25;6.97;;;0.95;;
41683;SDS011;27369;52.030;4.586;2023-01-26T15:55:50;2.80;;;0.82;;
41683;SDS011;27369;52.030;4.586;2023-01-26T15:58:26;3.20;;;0.38;;
41683;SDS011;27369;52.030;4.586;2023-01-26T16:00:52;7.13;;;1.98;;
41683;SDS011;27369;52.030;4.586;2023-01-26T16:03:19;5.75;;;0.57;;
41683;SDS011;27369;52.030;4.586;2023-01-26T16:05:45;7.55;;;0.55;;
41683;SDS011;27369;52.030;4.586;2023-01-26T16:08:12;5.30;;;1.13;;
41683;SDS011;27369;52.030;4.586;2023-01-26T16:13:07;3.97;;;0.63;;
41683;SDS011;27369;52.030;4.586;2023-01-26T16:18:09;3.90;;;0.80;;
41683;SDS011;27369;52.030;4.586;2023-01-26T16:20:36;4.93;;;1.00;;
41683;SDS011;27369;52.030;4.586;2023-01-26T16:23:05;9.65;;;1.67;;
41683;SDS011;27369;52.030;4.586;2023-01-26T16:25:51;2.75;;;0.77;;
41683;SDS011;27369;52.030;4.586;2023-01-26T16:28:17;8.45;;;1.08;;
41683;SDS011;27369;52.030;4.586;2023-01-26T16:30:43;13.40;;;1.70;;
41683;SDS011;27369;52.030;4.586;2023-01-26T16:33:11;8.30;;;1.23;;
41683;SDS011;27369;52.030;4.586;2023-01-26T16:35:37;1.60;;;0.63;;
41683;SDS011;27369;52.030;4.586;2023-01-26T16:38:03;8.00;;;0.93;;